82FL weather

CLOSED BR Ranch Airport
Jupiter, Florida, United States

Public forecast

Using degrees Fahrenheit for public forecast. Weather courtesy of forecast.io.

Closest aviation weather report (METAR) to BR Ranch Airport

Closest report is Palm Beach International Airport, 15.1 nm (27.9 km) SSE. Retrieved 2019/10/17 12:35 UTC (7 minutes ago):

KPBI 171235Z 30008KT 10SM SCT009 BKN016 26/24 A2994 RMK AO2 T02560239

Closest aviation forecast (TAF) to BR Ranch Airport

Closest forecast is Palm Beach International Airport, 15.1 nm (27.9 km) SSE. Retrieved 2019/10/17 12:50 UTC (0 seconds ago):

TAF KPBI 171143Z 1712/1812 26006KT P6SM FEW025 SCT250 FM171500 29006KT P6SM VCSH FEW025 SCT050 FM172000 07008KT P6SM VCTS SCT025CB BKN100 FM180100 VRB04KT P6SM FEW025 SCT050 SCT150